Winamac, Indiana
Current Conditions -  °F | °C
As of 6:15 PM on Sunday 23 Nov 2014 (Local Time) from KOXI Reporting Station
Overcast Overcast  
Wind Chill: 51°   Ceiling: 3000
Heat Index: 51°   Visibility: 3mi
Dew Point: 49°   Wind: 8mph
Humidity: 92%   Direction: 120°ESE
Pressure: 29.38"   Gusts: NA
Location:  41.05°N, 86.6°W
Report Text: KOXI 240015Z AUTO 12007KT 3SM SCT022 OVC030 11/09 A2938 RMK AO1 T01050093
Loading
Personal Weather Stations






























Interactive Weather Map New forecast layout! Learn more

10-Day Weather Forecast

Advertisements
Track Severe Weather on mobile